sensor_id;sensor_type;location;lat;lon;timestamp;pressure;altitude;pressure_sealevel;temperature;humidity
61384;BME280;63511;49.346;8.798;2023-03-15T00:00:29;99912.59;;;5.49;79.88
61384;BME280;63511;49.346;8.798;2023-03-15T00:02:56;99918.09;;;5.45;80.23
61384;BME280;63511;49.346;8.798;2023-03-15T00:05:22;99927.50;;;5.47;80.32
61384;BME280;63511;49.346;8.798;2023-03-15T00:07:49;99934.19;;;5.79;79.44
61384;BME280;63511;49.346;8.798;2023-03-15T00:10:15;99932.50;;;5.47;79.62
61384;BME280;63511;49.346;8.798;2023-03-15T00:12:43;99944.09;;;5.67;79.41
61384;BME280;63511;49.346;8.798;2023-03-15T00:15:12;99936.88;;;5.50;79.62
61384;BME280;63511;49.346;8.798;2023-03-15T00:17:39;99943.22;;;5.77;78.97
61384;BME280;63511;49.346;8.798;2023-03-15T00:22:41;99951.44;;;5.86;78.67
61384;BME280;63511;49.346;8.798;2023-03-15T00:25:08;99962.75;;;5.71;78.52
61384;BME280;63511;49.346;8.798;2023-03-15T00:27:35;99957.66;;;5.69;78.74
61384;BME280;63511;49.346;8.798;2023-03-15T00:30:04;99967.22;;;6.05;78.24
61384;BME280;63511;49.346;8.798;2023-03-15T00:32:30;99965.31;;;6.13;78.54
61384;BME280;63511;49.346;8.798;2023-03-15T00:34:57;99966.66;;;5.67;78.46
61384;BME280;63511;49.346;8.798;2023-03-15T00:37:25;99975.53;;;5.74;79.24
61384;BME280;63511;49.346;8.798;2023-03-15T00:39:56;99973.59;;;6.02;78.40
61384;BME280;63511;49.346;8.798;2023-03-15T00:42:23;99974.50;;;5.82;78.63
61384;BME280;63511;49.346;8.798;2023-03-15T00:44:52;99983.31;;;5.87;78.01
61384;BME280;63511;49.346;8.798;2023-03-15T00:47:20;99985.28;;;5.81;78.95
61384;BME280;63511;49.346;8.798;2023-03-15T00:49:47;99987.41;;;5.86;78.14
61384;BME280;63511;49.346;8.798;2023-03-15T00:52:15;99981.16;;;5.91;78.16
61384;BME280;63511;49.346;8.798;2023-03-15T00:54:41;99981.16;;;5.81;78.89
61384;BME280;63511;49.346;8.798;2023-03-15T00:57:08;99988.84;;;5.63;78.26
61384;BME280;63511;49.346;8.798;2023-03-15T00:59:35;99988.22;;;5.35;79.15
61384;BME280;63511;49.346;8.798;2023-03-15T01:02:05;99996.22;;;5.31;79.37
61384;BME280;63511;49.346;8.798;2023-03-15T01:04:33;99996.97;;;5.30;79.55
61384;BME280;63511;49.346;8.798;2023-03-15T01:07:00;99992.72;;;5.39;79.28
61384;BME280;63511;49.346;8.798;2023-03-15T01:09:26;100003.75;;;5.31;79.28
61384;BME280;63511;49.346;8.798;2023-03-15T01:11:54;100007.25;;;5.33;78.56
61384;BME280;63511;49.346;8.798;2023-03-15T01:14:21;100013.16;;;5.33;77.78
61384;BME280;63511;49.346;8.798;2023-03-15T01:16:47;100012.88;;;5.50;77.73
61384;BME280;63511;49.346;8.798;2023-03-15T01:19:14;100017.63;;;5.07;80.09
61384;BME280;63511;49.346;8.798;2023-03-15T01:21:42;100026.41;;;5.22;79.64
61384;BME280;63511;49.346;8.798;2023-03-15T01:24:14;100014.63;;;5.41;77.59
61384;BME280;63511;49.346;8.798;2023-03-15T01:26:41;100014.41;;;5.28;78.93
61384;BME280;63511;49.346;8.798;2023-03-15T01:29:07;100023.75;;;5.31;79.45
61384;BME280;63511;49.346;8.798;2023-03-15T01:31:34;100031.50;;;5.34;79.05
61384;BME280;63511;49.346;8.798;2023-03-15T01:34:00;100031.03;;;5.28;78.17
61384;BME280;63511;49.346;8.798;2023-03-15T01:36:27;100036.13;;;5.09;79.89
61384;BME280;63511;49.346;8.798;2023-03-15T01:38:55;100029.78;;;5.23;79.03
61384;BME280;63511;49.346;8.798;2023-03-15T01:41:23;100037.75;;;5.19;79.13
61384;BME280;63511;49.346;8.798;2023-03-15T01:43:52;100027.16;;;5.21;78.51
61384;BME280;63511;49.346;8.798;2023-03-15T01:46:25;100043.75;;;5.00;79.80
61384;BME280;63511;49.346;8.798;2023-03-15T01:48:57;100050.09;;;4.77;80.96
61384;BME280;63511;49.346;8.798;2023-03-15T01:51:33;100048.50;;;4.58;80.77
61384;BME280;63511;49.346;8.798;2023-03-15T01:54:06;100045.50;;;5.01;79.66
61384;BME280;63511;49.346;8.798;2023-03-15T01:56:36;100049.09;;;4.85;79.00
61384;BME280;63511;49.346;8.798;2023-03-15T01:59:04;100035.66;;;4.64;80.45
61384;BME280;63511;49.346;8.798;2023-03-15T02:01:34;100046.75;;;4.96;80.08
61384;BME280;63511;49.346;8.798;2023-03-15T02:04:03;100044.28;;;5.06;79.14
61384;BME280;63511;49.346;8.798;2023-03-15T02:06:33;100052.13;;;4.91;78.87
61384;BME280;63511;49.346;8.798;2023-03-15T02:09:04;100042.50;;;4.95;78.31
61384;BME280;63511;49.346;8.798;2023-03-15T02:11:33;100044.13;;;5.05;77.26
61384;BME280;63511;49.346;8.798;2023-03-15T02:14:01;100053.53;;;4.97;77.67
61384;BME280;63511;49.346;8.798;2023-03-15T02:16:28;100055.22;;;4.49;80.09
61384;BME280;63511;49.346;8.798;2023-03-15T02:18:55;100063.72;;;4.80;78.44
61384;BME280;63511;49.346;8.798;2023-03-15T02:21:35;100057.06;;;4.70;77.93
61384;BME280;63511;49.346;8.798;2023-03-15T02:24:22;100061.44;;;4.73;77.11
61384;BME280;63511;49.346;8.798;2023-03-15T02:26:52;100066.09;;;4.50;78.44
61384;BME280;63511;49.346;8.798;2023-03-15T02:29:24;100074.53;;;4.42;78.53
61384;BME280;63511;49.346;8.798;2023-03-15T02:31:52;100073.59;;;4.50;77.75
61384;BME280;63511;49.346;8.798;2023-03-15T02:34:18;100077.44;;;4.46;77.44
61384;BME280;63511;49.346;8.798;2023-03-15T02:36:50;100078.44;;;4.19;76.98
61384;BME280;63511;49.346;8.798;2023-03-15T02:39:18;100087.91;;;4.13;78.07
61384;BME280;63511;49.346;8.798;2023-03-15T02:41:47;100084.47;;;4.03;78.02
61384;BME280;63511;49.346;8.798;2023-03-15T02:44:17;100092.59;;;4.10;77.56
61384;BME280;63511;49.346;8.798;2023-03-15T02:46:48;100104.91;;;3.99;77.96
61384;BME280;63511;49.346;8.798;2023-03-15T02:49:17;100114.63;;;3.96;77.91
61384;BME280;63511;49.346;8.798;2023-03-15T02:51:46;100117.75;;;4.12;77.54
61384;BME280;63511;49.346;8.798;2023-03-15T02:54:12;100116.31;;;4.05;78.21
61384;BME280;63511;49.346;8.798;2023-03-15T02:56:39;100115.59;;;3.79;78.61
61384;BME280;63511;49.346;8.798;2023-03-15T02:59:05;100119.22;;;3.91;79.61
61384;BME280;63511;49.346;8.798;2023-03-15T03:01:34;100120.06;;;4.19;78.17
61384;BME280;63511;49.346;8.798;2023-03-15T03:04:04;100131.72;;;4.10;77.70
61384;BME280;63511;49.346;8.798;2023-03-15T03:06:30;100140.41;;;3.86;77.83
61384;BME280;63511;49.346;8.798;2023-03-15T03:08:57;100148.69;;;3.76;78.26
61384;BME280;63511;49.346;8.798;2023-03-15T03:11:23;100152.00;;;3.85;77.99
61384;BME280;63511;49.346;8.798;2023-03-15T03:13:50;100154.19;;;3.91;78.07
61384;BME280;63511;49.346;8.798;2023-03-15T03:16:16;100157.03;;;4.04;78.33
61384;BME280;63511;49.346;8.798;2023-03-15T03:18:43;100156.09;;;4.12;77.55
61384;BME280;63511;49.346;8.798;2023-03-15T03:21:11;100161.84;;;4.11;77.59
61384;BME280;63511;49.346;8.798;2023-03-15T03:23:39;100165.53;;;3.88;78.92
61384;BME280;63511;49.346;8.798;2023-03-15T03:26:11;100170.72;;;3.99;78.80
61384;BME280;63511;49.346;8.798;2023-03-15T03:28:41;100171.00;;;3.75;80.01
61384;BME280;63511;49.346;8.798;2023-03-15T03:31:15;100168.13;;;3.89;80.55
61384;BME280;63511;49.346;8.798;2023-03-15T03:33:41;100184.41;;;3.94;79.34
61384;BME280;63511;49.346;8.798;2023-03-15T03:36:08;100173.78;;;4.05;78.57
61384;BME280;63511;49.346;8.798;2023-03-15T03:38:38;100180.78;;;4.09;78.52
61384;BME280;63511;49.346;8.798;2023-03-15T03:41:12;100187.69;;;4.12;78.42
61384;BME280;63511;49.346;8.798;2023-03-15T03:43:40;100190.13;;;4.02;78.23
61384;BME280;63511;49.346;8.798;2023-03-15T03:46:06;100188.75;;;3.87;79.57
61384;BME280;63511;49.346;8.798;2023-03-15T03:48:35;100190.75;;;3.63;79.12
61384;BME280;63511;49.346;8.798;2023-03-15T03:51:01;100191.28;;;3.78;79.40
61384;BME280;63511;49.346;8.798;2023-03-15T03:53:28;100192.91;;;3.77;79.90
61384;BME280;63511;49.346;8.798;2023-03-15T03:55:56;100196.56;;;3.81;79.77
61384;BME280;63511;49.346;8.798;2023-03-15T03:58:22;100200.16;;;3.66;79.41
61384;BME280;63511;49.346;8.798;2023-03-15T04:00:50;100195.94;;;3.83;78.76
61384;BME280;63511;49.346;8.798;2023-03-15T04:03:23;100206.91;;;3.94;78.90
61384;BME280;63511;49.346;8.798;2023-03-15T04:05:51;100209.47;;;4.13;78.59
61384;BME280;63511;49.346;8.798;2023-03-15T04:08:18;100210.44;;;3.96;78.32
61384;BME280;63511;49.346;8.798;2023-03-15T04:10:48;100211.81;;;3.84;79.03
61384;BME280;63511;49.346;8.798;2023-03-15T04:13:16;100221.56;;;4.00;78.75
61384;BME280;63511;49.346;8.798;2023-03-15T04:15:43;100222.41;;;4.09;78.27
61384;BME280;63511;49.346;8.798;2023-03-15T04:18:09;100221.69;;;3.82;78.23
61384;BME280;63511;49.346;8.798;2023-03-15T04:20:36;100227.03;;;3.96;78.25
61384;BME280;63511;49.346;8.798;2023-03-15T04:23:02;100215.91;;;3.92;78.66
61384;BME280;63511;49.346;8.798;2023-03-15T04:25:31;100218.50;;;3.66;78.44
61384;BME280;63511;49.346;8.798;2023-03-15T04:27:57;100225.50;;;3.79;78.25
61384;BME280;63511;49.346;8.798;2023-03-15T04:30:28;100215.59;;;3.89;78.14
61384;BME280;63511;49.346;8.798;2023-03-15T04:32:56;100211.03;;;3.94;77.13
61384;BME280;63511;49.346;8.798;2023-03-15T04:35:24;100229.25;;;3.93;77.70
61384;BME280;63511;49.346;8.798;2023-03-15T04:37:51;100218.94;;;3.98;77.22
61384;BME280;63511;49.346;8.798;2023-03-15T04:40:20;100218.38;;;3.92;77.20
61384;BME280;63511;49.346;8.798;2023-03-15T04:42:48;100223.19;;;3.63;78.03
61384;BME280;63511;49.346;8.798;2023-03-15T04:45:15;100222.56;;;3.74;78.56
61384;BME280;63511;49.346;8.798;2023-03-15T04:47:42;100220.47;;;3.88;78.89
61384;BME280;63511;49.346;8.798;2023-03-15T04:50:10;100221.72;;;4.01;78.82
61384;BME280;63511;49.346;8.798;2023-03-15T04:52:37;100232.81;;;3.86;79.84
61384;BME280;63511;49.346;8.798;2023-03-15T04:55:04;100227.97;;;3.79;78.74
61384;BME280;63511;49.346;8.798;2023-03-15T04:57:31;100232.75;;;4.03;78.28
61384;BME280;63511;49.346;8.798;2023-03-15T04:59:57;100228.22;;;3.91;78.19
61384;BME280;63511;49.346;8.798;2023-03-15T05:02:39;100241.28;;;3.61;79.48
61384;BME280;63511;49.346;8.798;2023-03-15T05:05:08;100246.84;;;3.67;79.76
61384;BME280;63511;49.346;8.798;2023-03-15T05:07:35;100247.84;;;3.69;80.06
61384;BME280;63511;49.346;8.798;2023-03-15T05:10:03;100257.00;;;3.60;79.98
61384;BME280;63511;49.346;8.798;2023-03-15T05:12:30;100247.34;;;3.54;79.45
61384;BME280;63511;49.346;8.798;2023-03-15T05:14:58;100243.38;;;3.48;80.38
61384;BME280;63511;49.346;8.798;2023-03-15T05:17:24;100243.84;;;3.52;80.17
61384;BME280;63511;49.346;8.798;2023-03-15T05:19:56;100251.16;;;3.42;80.98
61384;BME280;63511;49.346;8.798;2023-03-15T05:22:27;100244.13;;;3.47;80.61
61384;BME280;63511;49.346;8.798;2023-03-15T05:24:53;100248.94;;;3.54;79.37
61384;BME280;63511;49.346;8.798;2023-03-15T05:27:20;100245.34;;;3.41;81.21
61384;BME280;63511;49.346;8.798;2023-03-15T05:29:46;100245.66;;;3.72;79.99
61384;BME280;63511;49.346;8.798;2023-03-15T05:32:15;100238.06;;;3.53;81.42
61384;BME280;63511;49.346;8.798;2023-03-15T05:34:41;100251.31;;;3.43;79.99
61384;BME280;63511;49.346;8.798;2023-03-15T05:37:08;100258.66;;;3.42;79.82
61384;BME280;63511;49.346;8.798;2023-03-15T05:39:37;100255.91;;;3.30;81.30
61384;BME280;63511;49.346;8.798;2023-03-15T05:42:12;100255.16;;;3.40;80.58
61384;BME280;63511;49.346;8.798;2023-03-15T05:44:46;100257.03;;;3.51;81.42
61384;BME280;63511;49.346;8.798;2023-03-15T05:47:12;100256.47;;;3.45;81.88
61384;BME280;63511;49.346;8.798;2023-03-15T05:49:42;100268.19;;;3.55;81.95
61384;BME280;63511;49.346;8.798;2023-03-15T05:52:09;100268.16;;;3.63;81.62
61384;BME280;63511;49.346;8.798;2023-03-15T05:54:35;100263.03;;;3.62;82.16
61384;BME280;63511;49.346;8.798;2023-03-15T05:57:04;100258.06;;;3.89;81.14
61384;BME280;63511;49.346;8.798;2023-03-15T05:59:30;100266.00;;;3.94;80.81
61384;BME280;63511;49.346;8.798;2023-03-15T06:01:57;100280.09;;;4.20;79.78
61384;BME280;63511;49.346;8.798;2023-03-15T06:04:23;100270.72;;;4.18;79.88
61384;BME280;63511;49.346;8.798;2023-03-15T06:06:50;100283.97;;;4.36;79.62
61384;BME280;63511;49.346;8.798;2023-03-15T06:09:17;100284.53;;;4.42;79.36
61384;BME280;63511;49.346;8.798;2023-03-15T06:11:43;100279.13;;;4.37;79.13
61384;BME280;63511;49.346;8.798;2023-03-15T06:14:11;100284.91;;;4.27;79.68
61384;BME280;63511;49.346;8.798;2023-03-15T06:16:38;100286.59;;;4.18;80.24
61384;BME280;63511;49.346;8.798;2023-03-15T06:19:04;100297.84;;;4.32;81.13
61384;BME280;63511;49.346;8.798;2023-03-15T06:21:31;100296.94;;;4.59;79.79
61384;BME280;63511;49.346;8.798;2023-03-15T06:23:57;100301.53;;;4.54;79.79
61384;BME280;63511;49.346;8.798;2023-03-15T06:26:24;100300.81;;;4.74;79.30
61384;BME280;63511;49.346;8.798;2023-03-15T06:28:50;100301.94;;;4.59;79.60
61384;BME280;63511;49.346;8.798;2023-03-15T06:31:18;100313.22;;;4.64;79.84
61384;BME280;63511;49.346;8.798;2023-03-15T06:33:44;100310.66;;;4.26;80.42
61384;BME280;63511;49.346;8.798;2023-03-15T06:36:11;100305.56;;;4.44;80.88
61384;BME280;63511;49.346;8.798;2023-03-15T06:38:38;100306.44;;;4.44;79.87
61384;BME280;63511;49.346;8.798;2023-03-15T06:41:06;100315.63;;;4.35;80.01
61384;BME280;63511;49.346;8.798;2023-03-15T06:43:33;100312.69;;;4.31;81.03
61384;BME280;63511;49.346;8.798;2023-03-15T06:45:59;100312.25;;;3.99;81.25
61384;BME280;63511;49.346;8.798;2023-03-15T06:48:27;100308.06;;;4.44;80.70
61384;BME280;63511;49.346;8.798;2023-03-15T06:50:55;100308.09;;;4.62;80.97
61384;BME280;63511;49.346;8.798;2023-03-15T06:53:22;100319.63;;;4.52;80.70
61384;BME280;63511;49.346;8.798;2023-03-15T06:55:48;100322.88;;;4.23;80.32
61384;BME280;63511;49.346;8.798;2023-03-15T06:58:16;100314.84;;;4.45;80.41
61384;BME280;63511;49.346;8.798;2023-03-15T07:00:43;100316.38;;;4.80;79.68
61384;BME280;63511;49.346;8.798;2023-03-15T07:03:09;100323.88;;;4.80;79.42
61384;BME280;63511;49.346;8.798;2023-03-15T07:05:37;100329.19;;;4.28;80.14
61384;BME280;63511;49.346;8.798;2023-03-15T07:08:06;100321.84;;;4.21;80.17
61384;BME280;63511;49.346;8.798;2023-03-15T07:10:33;100322.88;;;4.23;80.47
61384;BME280;63511;49.346;8.798;2023-03-15T07:13:00;100320.81;;;4.47;79.94
61384;BME280;63511;49.346;8.798;2023-03-15T07:15:27;100310.97;;;4.48;80.72
61384;BME280;63511;49.346;8.798;2023-03-15T07:17:53;100329.59;;;4.79;79.07
61384;BME280;63511;49.346;8.798;2023-03-15T07:20:20;100337.03;;;4.69;79.03
61384;BME280;63511;49.346;8.798;2023-03-15T07:22:47;100327.59;;;4.75;79.28
61384;BME280;63511;49.346;8.798;2023-03-15T07:25:14;100345.47;;;5.54;77.05
61384;BME280;63511;49.346;8.798;2023-03-15T07:27:47;100340.78;;;5.20;76.95
61384;BME280;63511;49.346;8.798;2023-03-15T07:30:14;100353.06;;;4.90;77.39
61384;BME280;63511;49.346;8.798;2023-03-15T07:32:44;100348.81;;;5.26;76.80
61384;BME280;63511;49.346;8.798;2023-03-15T07:35:11;100358.09;;;5.08;77.26
61384;BME280;63511;49.346;8.798;2023-03-15T07:37:38;100361.31;;;4.89;78.12
61384;BME280;63511;49.346;8.798;2023-03-15T07:40:08;100353.16;;;4.81;77.88
61384;BME280;63511;49.346;8.798;2023-03-15T07:42:35;100365.28;;;4.68;79.23
61384;BME280;63511;49.346;8.798;2023-03-15T07:45:01;100363.75;;;4.79;78.64
61384;BME280;63511;49.346;8.798;2023-03-15T07:47:29;100373.31;;;5.01;77.79
61384;BME280;63511;49.346;8.798;2023-03-15T07:49:56;100363.63;;;4.96;78.15
61384;BME280;63511;49.346;8.798;2023-03-15T07:52:23;100361.81;;;5.22;77.41
61384;BME280;63511;49.346;8.798;2023-03-15T07:54:49;100369.84;;;4.91;78.18
61384;BME280;63511;49.346;8.798;2023-03-15T07:57:17;100372.47;;;4.74;77.47
61384;BME280;63511;49.346;8.798;2023-03-15T07:59:43;100376.06;;;5.04;77.03
61384;BME280;63511;49.346;8.798;2023-03-15T08:02:11;100376.22;;;5.43;76.06
61384;BME280;63511;49.346;8.798;2023-03-15T08:04:38;100380.91;;;5.11;77.45
61384;BME280;63511;49.346;8.798;2023-03-15T08:07:05;100377.78;;;5.33;76.47
61384;BME280;63511;49.346;8.798;2023-03-15T08:09:32;100383.06;;;5.17;75.96
61384;BME280;63511;49.346;8.798;2023-03-15T08:11:59;100382.59;;;5.02;76.24
61384;BME280;63511;49.346;8.798;2023-03-15T08:14:27;100376.81;;;5.41;76.34
61384;BME280;63511;49.346;8.798;2023-03-15T08:16:55;100386.69;;;5.39;76.21
61384;BME280;63511;49.346;8.798;2023-03-15T08:19:22;100379.94;;;5.20;76.78
61384;BME280;63511;49.346;8.798;2023-03-15T08:21:48;100385.13;;;5.50;76.15
61384;BME280;63511;49.346;8.798;2023-03-15T08:24:18;100382.31;;;5.37;75.34
61384;BME280;63511;49.346;8.798;2023-03-15T08:26:45;100386.84;;;5.41;75.69
61384;BME280;63511;49.346;8.798;2023-03-15T08:29:12;100376.19;;;5.62;75.53
61384;BME280;63511;49.346;8.798;2023-03-15T08:31:40;100393.47;;;5.59;76.13
61384;BME280;63511;49.346;8.798;2023-03-15T08:34:06;100395.09;;;5.40;76.26
61384;BME280;63511;49.346;8.798;2023-03-15T08:36:34;100397.47;;;5.20;76.03
61384;BME280;63511;49.346;8.798;2023-03-15T08:39:00;100390.72;;;5.37;76.36
61384;BME280;63511;49.346;8.798;2023-03-15T08:41:29;100384.53;;;5.52;76.44
61384;BME280;63511;49.346;8.798;2023-03-15T08:43:56;100385.63;;;5.65;75.70
61384;BME280;63511;49.346;8.798;2023-03-15T08:46:22;100391.97;;;5.61;76.30
61384;BME280;63511;49.346;8.798;2023-03-15T08:48:50;100396.09;;;5.61;75.45
61384;BME280;63511;49.346;8.798;2023-03-15T08:51:17;100397.66;;;5.69;75.08
61384;BME280;63511;49.346;8.798;2023-03-15T08:53:44;100389.63;;;5.91;75.14
61384;BME280;63511;49.346;8.798;2023-03-15T08:56:10;100402.41;;;5.47;75.28
61384;BME280;63511;49.346;8.798;2023-03-15T08:58:37;100388.59;;;5.42;75.96
61384;BME280;63511;49.346;8.798;2023-03-15T09:01:03;100402.44;;;5.76;75.43
61384;BME280;63511;49.346;8.798;2023-03-15T09:03:30;100411.41;;;5.45;75.86
61384;BME280;63511;49.346;8.798;2023-03-15T09:05:58;100410.81;;;5.76;75.25
61384;BME280;63511;49.346;8.798;2023-03-15T09:08:25;100406.84;;;5.78;76.19
61384;BME280;63511;49.346;8.798;2023-03-15T09:10:53;100424.06;;;5.46;77.00
61384;BME280;63511;49.346;8.798;2023-03-15T09:13:20;100413.81;;;5.72;76.80
61384;BME280;63511;49.346;8.798;2023-03-15T09:15:48;100415.88;;;5.86;76.76
61384;BME280;63511;49.346;8.798;2023-03-15T09:18:15;100421.69;;;5.67;77.86
61384;BME280;63511;49.346;8.798;2023-03-15T09:20:41;100417.50;;;5.57;76.80
61384;BME280;63511;49.346;8.798;2023-03-15T09:23:09;100418.53;;;5.59;77.78
61384;BME280;63511;49.346;8.798;2023-03-15T09:25:36;100424.81;;;5.45;78.46
61384;BME280;63511;49.346;8.798;2023-03-15T09:28:03;100424.06;;;5.46;78.88
61384;BME280;63511;49.346;8.798;2023-03-15T09:30:30;100431.31;;;5.43;79.08
61384;BME280;63511;49.346;8.798;2023-03-15T09:32:56;100438.31;;;5.29;79.84
61384;BME280;63511;49.346;8.798;2023-03-15T09:35:23;100439.47;;;5.13;80.15
61384;BME280;63511;49.346;8.798;2023-03-15T09:37:49;100428.72;;;5.52;78.12
61384;BME280;63511;49.346;8.798;2023-03-15T09:40:19;100444.72;;;5.63;78.77
61384;BME280;63511;49.346;8.798;2023-03-15T09:42:58;100425.31;;;5.70;76.74
61384;BME280;63511;49.346;8.798;2023-03-15T09:45:40;100437.81;;;5.41;78.44
61384;BME280;63511;49.346;8.798;2023-03-15T09:48:11;100440.56;;;5.26;79.43
61384;BME280;63511;49.346;8.798;2023-03-15T09:50:44;100436.31;;;5.62;79.57
61384;BME280;63511;49.346;8.798;2023-03-15T09:53:15;100446.34;;;5.43;80.63
61384;BME280;63511;49.346;8.798;2023-03-15T09:55:46;100446.06;;;5.40;80.59
61384;BME280;63511;49.346;8.798;2023-03-15T09:58:14;100446.88;;;5.68;80.35
61384;BME280;63511;49.346;8.798;2023-03-15T10:00:44;100448.50;;;5.68;80.07
61384;BME280;63511;49.346;8.798;2023-03-15T10:03:17;100452.81;;;5.60;80.76
61384;BME280;63511;49.346;8.798;2023-03-15T10:05:48;100452.78;;;5.87;79.40
61384;BME280;63511;49.346;8.798;2023-03-15T10:08:18;100450.44;;;5.80;79.90
61384;BME280;63511;49.346;8.798;2023-03-15T10:10:50;100443.88;;;5.72;79.37
61384;BME280;63511;49.346;8.798;2023-03-15T10:13:28;100452.16;;;6.19;78.34
61384;BME280;63511;49.346;8.798;2023-03-15T10:16:03;100462.38;;;5.64;78.95
61384;BME280;63511;49.346;8.798;2023-03-15T10:18:42;100459.94;;;5.37;79.77
61384;BME280;63511;49.346;8.798;2023-03-15T10:21:15;100454.56;;;5.24;80.24
61384;BME280;63511;49.346;8.798;2023-03-15T10:23:49;100459.13;;;5.28;82.18
61384;BME280;63511;49.346;8.798;2023-03-15T10:26:20;100461.22;;;5.23;81.54
61384;BME280;63511;49.346;8.798;2023-03-15T10:28:48;100459.53;;;5.32;80.79
61384;BME280;63511;49.346;8.798;2023-03-15T10:31:17;100472.59;;;5.38;81.64
61384;BME280;63511;49.346;8.798;2023-03-15T10:33:47;100465.94;;;5.20;82.95
61384;BME280;63511;49.346;8.798;2023-03-15T10:36:18;100464.69;;;5.90;81.35
61384;BME280;63511;49.346;8.798;2023-03-15T10:38:46;100468.19;;;5.73;82.00
61384;BME280;63511;49.346;8.798;2023-03-15T10:41:28;100460.28;;;5.87;81.76
61384;BME280;63511;49.346;8.798;2023-03-15T10:43:58;100461.69;;;5.75;82.49
61384;BME280;63511;49.346;8.798;2023-03-15T10:46:25;100462.97;;;5.80;82.65
61384;BME280;63511;49.346;8.798;2023-03-15T10:48:55;100460.78;;;6.12;81.46
61384;BME280;63511;49.346;8.798;2023-03-15T10:51:24;100446.63;;;6.13;80.87
61384;BME280;63511;49.346;8.798;2023-03-15T10:53:53;100451.09;;;6.35;81.95
61384;BME280;63511;49.346;8.798;2023-03-15T10:56:22;100452.59;;;6.33;81.46
61384;BME280;63511;49.346;8.798;2023-03-15T10:58:52;100447.88;;;6.18;81.47
61384;BME280;63511;49.346;8.798;2023-03-15T11:01:23;100450.59;;;6.01;80.98
61384;BME280;63511;49.346;8.798;2023-03-15T11:04:08;100445.59;;;6.39;81.57
61384;BME280;63511;49.346;8.798;2023-03-15T11:06:39;100455.91;;;6.14;80.17
61384;BME280;63511;49.346;8.798;2023-03-15T11:09:08;100446.91;;;5.97;80.25
61384;BME280;63511;49.346;8.798;2023-03-15T11:11:51;100451.72;;;6.04;81.42
61384;BME280;63511;49.346;8.798;2023-03-15T11:14:19;100455.47;;;6.38;82.80
61384;BME280;63511;49.346;8.798;2023-03-15T11:16:48;100451.31;;;6.67;81.72
61384;BME280;63511;49.346;8.798;2023-03-15T11:19:17;100451.19;;;6.66;81.02
61384;BME280;63511;49.346;8.798;2023-03-15T11:21:45;100452.38;;;6.40;80.64
61384;BME280;63511;49.346;8.798;2023-03-15T11:24:21;100452.91;;;6.47;80.97
61384;BME280;63511;49.346;8.798;2023-03-15T11:26:51;100457.81;;;6.55;81.83
61384;BME280;63511;49.346;8.798;2023-03-15T11:29:23;100451.63;;;6.42;81.90
61384;BME280;63511;49.346;8.798;2023-03-15T11:31:51;100446.81;;;6.73;81.81
61384;BME280;63511;49.346;8.798;2023-03-15T11:34:26;100454.03;;;6.50;82.49
61384;BME280;63511;49.346;8.798;2023-03-15T11:37:00;100457.06;;;6.56;83.21
61384;BME280;63511;49.346;8.798;2023-03-15T11:39:36;100459.94;;;6.51;82.31
61384;BME280;63511;49.346;8.798;2023-03-15T11:42:08;100452.25;;;6.49;82.30
61384;BME280;63511;49.346;8.798;2023-03-15T11:44:39;100451.59;;;6.91;80.87
61384;BME280;63511;49.346;8.798;2023-03-15T11:47:15;100452.31;;;6.69;83.17
61384;BME280;63511;49.346;8.798;2023-03-15T11:49:48;100453.13;;;7.29;82.20
61384;BME280;63511;49.346;8.798;2023-03-15T11:52:16;100455.13;;;6.93;82.34
61384;BME280;63511;49.346;8.798;2023-03-15T11:54:45;100450.09;;;7.03;81.53
61384;BME280;63511;49.346;8.798;2023-03-15T11:57:35;100456.00;;;7.13;82.64
61384;BME280;63511;49.346;8.798;2023-03-15T12:03:22;100448.34;;;7.32;81.63
61384;BME280;63511;49.346;8.798;2023-03-15T12:05:49;100455.88;;;7.02;80.21
61384;BME280;63511;49.346;8.798;2023-03-15T12:08:20;100451.59;;;7.31;80.96
61384;BME280;63511;49.346;8.798;2023-03-15T12:10:50;100448.47;;;7.34;81.54
61384;BME280;63511;49.346;8.798;2023-03-15T12:13:21;100454.88;;;7.40;80.29
61384;BME280;63511;49.346;8.798;2023-03-15T12:15:49;100457.75;;;7.35;81.46
61384;BME280;63511;49.346;8.798;2023-03-15T12:18:25;100458.16;;;7.09;82.49
61384;BME280;63511;49.346;8.798;2023-03-15T12:23:40;100455.69;;;6.70;81.87
61384;BME280;63511;49.346;8.798;2023-03-15T12:26:12;100448.44;;;6.63;81.60
61384;BME280;63511;49.346;8.798;2023-03-15T12:28:48;100455.84;;;6.92;83.02
61384;BME280;63511;49.346;8.798;2023-03-15T12:31:17;100448.56;;;7.05;81.34
61384;BME280;63511;49.346;8.798;2023-03-15T12:33:47;100452.59;;;6.82;82.73
61384;BME280;63511;49.346;8.798;2023-03-15T12:36:19;100446.13;;;6.56;83.06
61384;BME280;63511;49.346;8.798;2023-03-15T12:38:57;100461.91;;;6.45;83.36
61384;BME280;63511;49.346;8.798;2023-03-15T12:41:38;100470.22;;;6.64;83.11
61384;BME280;63511;49.346;8.798;2023-03-15T12:44:26;100469.66;;;6.97;81.94
61384;BME280;63511;49.346;8.798;2023-03-15T12:47:04;100465.91;;;7.12;81.95
61384;BME280;63511;49.346;8.798;2023-03-15T12:49:33;100459.13;;;7.21;80.56
61384;BME280;63511;49.346;8.798;2023-03-15T12:52:02;100471.56;;;7.40;80.43
61384;BME280;63511;49.346;8.798;2023-03-15T12:54:38;100473.69;;;7.55;80.53
61384;BME280;63511;49.346;8.798;2023-03-15T12:57:09;100467.63;;;7.74;81.56
61384;BME280;63511;49.346;8.798;2023-03-15T12:59:39;100463.41;;;7.42;81.43
61384;BME280;63511;49.346;8.798;2023-03-15T13:02:23;100453.13;;;7.39;81.39
61384;BME280;63511;49.346;8.798;2023-03-15T13:05:00;100449.47;;;7.36;81.38
61384;BME280;63511;49.346;8.798;2023-03-15T13:07:36;100459.69;;;7.79;80.27
61384;BME280;63511;49.346;8.798;2023-03-15T13:10:37;100454.25;;;7.95;79.83
61384;BME280;63511;49.346;8.798;2023-03-15T13:13:12;100472.06;;;7.56;79.72
61384;BME280;63511;49.346;8.798;2023-03-15T13:15:42;100472.56;;;8.04;80.57
61384;BME280;63511;49.346;8.798;2023-03-15T13:18:16;100464.66;;;7.99;79.73